ACA870 CYVR-KSFO
Flight info
| Callsign | ACA870 |
|---|---|
| Flight time | 1h 43m |
| Altitude | 39000 |
| Route | VIXOR DCT ELMAA Q1 ETCHY DCT MLBEC BDEGA4 |
| Aircraft | B77W/H-SDE1E2E3FGHIJ2J3J4J5M1RWXY/LB1D1 |
Departure
| Time | 2026-05-04 02:46 |
|---|---|
| Airport | Vancouver International Airport (CYVR) |
Arrival
| Time | 2026-05-04 04:30 |
|---|---|
| Airport | San Francisco International Airport (KSFO) |
| Time | Latitude | Longitude | Altitude | Speed | Heading |
|---|---|---|---|---|---|
| 2026-05-04 02:27 | 49.19873 | -123.17848 | 17 ft | 0 kts | 223° |
| 2026-05-04 02:31 | 49.19879 | -123.17840 | 17 ft | 2 kts | 223° |
| 2026-05-04 02:31 | 49.19890 | -123.17825 | 17 ft | 2 kts | 223° |
| 2026-05-04 02:31 | 49.19901 | -123.17808 | 17 ft | 2 kts | 223° |
| 2026-05-04 02:31 | 49.19912 | -123.17793 | 17 ft | 2 kts | 231° |
| 2026-05-04 02:32 | 49.19920 | -123.17774 | 17 ft | 2 kts | 242° |
| 2026-05-04 02:32 | 49.19926 | -123.17754 | 17 ft | 2 kts | 251° |
| 2026-05-04 02:32 | 49.19930 | -123.17731 | 17 ft | 2 kts | 261° |
| 2026-05-04 02:32 | 49.19931 | -123.17709 | 17 ft | 2 kts | 270° |
| 2026-05-04 02:33 | 49.19931 | -123.17688 | 17 ft | 1 kts | 279° |
| 2026-05-04 02:33 | 49.19930 | -123.17683 | 17 ft | 0 kts | 281° |
| 2026-05-04 02:36 | 49.19933 | -123.17710 | 17 ft | 5 kts | 279° |
| 2026-05-04 02:36 | 49.19945 | -123.17788 | 17 ft | 9 kts | 296° |
| 2026-05-04 02:37 | 49.19974 | -123.17877 | 17 ft | 9 kts | 290° |
| 2026-05-04 02:37 | 49.19991 | -123.17984 | 17 ft | 11 kts | 281° |
| 2026-05-04 02:37 | 49.20005 | -123.18108 | 17 ft | 12 kts | 280° |
| 2026-05-04 02:37 | 49.20021 | -123.18238 | 17 ft | 12 kts | 280° |
| 2026-05-04 02:38 | 49.20036 | -123.18375 | 17 ft | 12 kts | 280° |
| 2026-05-04 02:38 | 49.20040 | -123.18493 | 17 ft | 9 kts | 230° |
| 2026-05-04 02:38 | 49.19992 | -123.18525 | 17 ft | 7 kts | 189° |
| 2026-05-04 02:38 | 49.19932 | -123.18540 | 17 ft | 10 kts | 190° |
| 2026-05-04 02:39 | 49.19854 | -123.18561 | 17 ft | 12 kts | 190° |
| 2026-05-04 02:39 | 49.19763 | -123.18598 | 17 ft | 14 kts | 211° |
| 2026-05-04 02:39 | 49.19669 | -123.18678 | 17 ft | 16 kts | 195° |
| 2026-05-04 02:39 | 49.19558 | -123.18711 | 17 ft | 16 kts | 190° |
| 2026-05-04 02:40 | 49.19455 | -123.18735 | 17 ft | 12 kts | 176° |
| 2026-05-04 02:40 | 49.19379 | -123.18694 | 17 ft | 11 kts | 173° |
| 2026-05-04 02:40 | 49.19297 | -123.18710 | 17 ft | 12 kts | 191° |
| 2026-05-04 02:40 | 49.19210 | -123.18729 | 17 ft | 12 kts | 173° |
| 2026-05-04 02:41 | 49.19133 | -123.18655 | 17 ft | 14 kts | 141° |
| 2026-05-04 02:41 | 49.19054 | -123.18561 | 17 ft | 15 kts | 142° |
| 2026-05-04 02:41 | 49.18969 | -123.18458 | 17 ft | 15 kts | 133° |
| 2026-05-04 02:41 | 49.18940 | -123.18298 | 17 ft | 16 kts | 99° |
| 2026-05-04 02:42 | 49.18920 | -123.18121 | 17 ft | 17 kts | 99° |
| 2026-05-04 02:42 | 49.18902 | -123.17958 | 17 ft | 18 kts | 100° |
| 2026-05-04 02:42 | 49.18878 | -123.17746 | 17 ft | 19 kts | 100° |
| 2026-05-04 02:42 | 49.18854 | -123.17542 | 17 ft | 19 kts | 100° |
| 2026-05-04 02:43 | 49.18830 | -123.17330 | 17 ft | 20 kts | 100° |
| 2026-05-04 02:43 | 49.18805 | -123.17109 | 17 ft | 21 kts | 100° |
| 2026-05-04 02:43 | 49.18779 | -123.16886 | 17 ft | 21 kts | 100° |
| 2026-05-04 02:43 | 49.18755 | -123.16670 | 17 ft | 20 kts | 100° |
| 2026-05-04 02:44 | 49.18731 | -123.16466 | 17 ft | 19 kts | 100° |
| 2026-05-04 02:44 | 49.18702 | -123.16305 | 17 ft | 13 kts | 120° |
| 2026-05-04 02:44 | 49.18647 | -123.16200 | 17 ft | 12 kts | 116° |
| 2026-05-04 02:44 | 49.18624 | -123.16072 | 17 ft | 11 kts | 121° |
| 2026-05-04 02:45 | 49.18552 | -123.16042 | 17 ft | 11 kts | 183° |
| 2026-05-04 02:45 | 49.18492 | -123.16061 | 17 ft | 5 kts | 216° |
| 2026-05-04 02:45 | 49.18480 | -123.16112 | 17 ft | 5 kts | 272° |
| 2026-05-04 02:45 | 49.18485 | -123.16180 | 17 ft | 10 kts | 279° |
| 2026-05-04 02:46 | 49.18510 | -123.16409 | 17 ft | 49 kts | 280° |
| 2026-05-04 02:46 | 49.18613 | -123.17313 | 17 ft | 121 kts | 280° |
| 2026-05-04 02:46 | 49.18792 | -123.18985 | 244 ft | 186 kts | 279° |
| 2026-05-04 02:46 | 49.18950 | -123.20994 | 871 ft | 199 kts | 278° |
| 2026-05-04 02:47 | 49.19065 | -123.23093 | 1932 ft | 205 kts | 270° |
| 2026-05-04 02:47 | 49.18943 | -123.25275 | 2831 ft | 218 kts | 265° |
| 2026-05-04 02:47 | 49.18741 | -123.27667 | 3601 ft | 238 kts | 264° |
| 2026-05-04 02:47 | 49.18512 | -123.30124 | 4428 ft | 253 kts | 263° |
| 2026-05-04 02:48 | 49.18245 | -123.32931 | 5308 ft | 270 kts | 263° |
| 2026-05-04 02:48 | 49.17697 | -123.35688 | 6343 ft | 278 kts | 241° |
| 2026-05-04 02:48 | 49.16404 | -123.37830 | 7309 ft | 285 kts | 212° |
| 2026-05-04 02:48 | 49.14553 | -123.38837 | 8276 ft | 290 kts | 188° |
| 2026-05-04 02:49 | 49.12573 | -123.39293 | 9322 ft | 293 kts | 187° |
| 2026-05-04 02:49 | 49.10547 | -123.39752 | 10244 ft | 301 kts | 187° |
| 2026-05-04 02:49 | 49.08424 | -123.40241 | 10896 ft | 317 kts | 188° |
| 2026-05-04 02:49 | 49.06198 | -123.40754 | 11625 ft | 332 kts | 188° |
| 2026-05-04 02:50 | 49.03878 | -123.41288 | 12333 ft | 348 kts | 188° |
| 2026-05-04 02:50 | 49.01434 | -123.41851 | 12953 ft | 364 kts | 188° |
| 2026-05-04 02:50 | 48.98911 | -123.42432 | 13563 ft | 379 kts | 188° |
| 2026-05-04 02:50 | 48.96260 | -123.43043 | 14224 ft | 394 kts | 188° |
| 2026-05-04 02:51 | 48.93510 | -123.43675 | 14865 ft | 407 kts | 188° |
| 2026-05-04 02:51 | 48.90675 | -123.44327 | 15601 ft | 417 kts | 188° |
| 2026-05-04 02:51 | 48.87784 | -123.44992 | 16425 ft | 424 kts | 188° |
| 2026-05-04 02:51 | 48.84882 | -123.45658 | 17263 ft | 428 kts | 188° |
| 2026-05-04 02:52 | 48.81926 | -123.46336 | 18085 ft | 433 kts | 189° |
| 2026-05-04 02:52 | 48.78941 | -123.47021 | 18816 ft | 440 kts | 189° |
| 2026-05-04 02:52 | 48.76207 | -123.47647 | 19445 ft | 446 kts | 189° |
| 2026-05-04 02:52 | 48.72998 | -123.48292 | 20163 ft | 453 kts | 184° |
| 2026-05-04 02:53 | 48.69875 | -123.48332 | 20842 ft | 458 kts | 178° |
| 2026-05-04 02:53 | 48.66795 | -123.48186 | 21536 ft | 462 kts | 178° |
| 2026-05-04 02:53 | 48.63680 | -123.48027 | 22160 ft | 468 kts | 178° |
| 2026-05-04 02:53 | 48.60447 | -123.47864 | 22767 ft | 474 kts | 178° |
| 2026-05-04 02:54 | 48.57134 | -123.47698 | 23380 ft | 479 kts | 178° |
| 2026-05-04 02:54 | 48.53764 | -123.47531 | 24036 ft | 483 kts | 177° |
| 2026-05-04 02:54 | 48.50419 | -123.47367 | 24644 ft | 487 kts | 177° |
| 2026-05-04 02:54 | 48.47007 | -123.47200 | 25211 ft | 492 kts | 177° |
| 2026-05-04 02:55 | 48.40135 | -123.46865 | 26245 ft | 500 kts | 177° |
| 2026-05-04 02:55 | 48.36673 | -123.46697 | 26730 ft | 503 kts | 176° |
| 2026-05-04 02:55 | 48.33134 | -123.46526 | 27192 ft | 507 kts | 176° |
| 2026-05-04 02:56 | 48.29629 | -123.46357 | 27652 ft | 510 kts | 176° |
| 2026-05-04 02:56 | 48.26059 | -123.46185 | 28115 ft | 513 kts | 176° |
| 2026-05-04 02:56 | 48.22526 | -123.46015 | 28530 ft | 516 kts | 176° |
| 2026-05-04 02:56 | 48.18878 | -123.45840 | 28920 ft | 520 kts | 176° |
| 2026-05-04 02:57 | 48.15222 | -123.45665 | 29350 ft | 522 kts | 176° |
| 2026-05-04 02:57 | 48.11607 | -123.45493 | 29896 ft | 520 kts | 176° |
| 2026-05-04 02:57 | 48.07983 | -123.45321 | 30455 ft | 518 kts | 176° |
| 2026-05-04 02:57 | 48.04374 | -123.45149 | 30923 ft | 518 kts | 175° |
| 2026-05-04 02:58 | 48.00798 | -123.44978 | 31229 ft | 520 kts | 175° |
| 2026-05-04 02:58 | 47.97161 | -123.44805 | 31556 ft | 522 kts | 175° |
| 2026-05-04 02:58 | 47.93473 | -123.44630 | 31902 ft | 523 kts | 175° |
| 2026-05-04 02:58 | 47.89980 | -123.44465 | 32266 ft | 522 kts | 175° |
| 2026-05-04 02:59 | 47.86288 | -123.44290 | 32584 ft | 523 kts | 174° |
| 2026-05-04 02:59 | 47.82628 | -123.44117 | 32824 ft | 525 kts | 174° |
| 2026-05-04 02:59 | 47.78947 | -123.43942 | 33016 ft | 527 kts | 174° |
| 2026-05-04 02:59 | 47.75466 | -123.43778 | 33295 ft | 527 kts | 174° |
| 2026-05-04 03:00 | 47.71805 | -123.43607 | 33636 ft | 526 kts | 174° |
| 2026-05-04 03:00 | 47.68124 | -123.43434 | 33919 ft | 526 kts | 174° |
| 2026-05-04 03:00 | 47.64719 | -123.43275 | 34189 ft | 526 kts | 174° |
| 2026-05-04 03:00 | 47.61087 | -123.43104 | 34507 ft | 525 kts | 174° |
| 2026-05-04 03:01 | 47.57414 | -123.42932 | 34834 ft | 524 kts | 174° |
| 2026-05-04 03:01 | 47.53783 | -123.42763 | 35189 ft | 522 kts | 174° |
| 2026-05-04 03:01 | 47.50135 | -123.42593 | 35474 ft | 522 kts | 174° |
| 2026-05-04 03:01 | 47.46515 | -123.42424 | 35742 ft | 521 kts | 174° |
| 2026-05-04 03:02 | 47.42885 | -123.42255 | 36023 ft | 521 kts | 173° |
| 2026-05-04 03:02 | 47.39349 | -123.42091 | 36328 ft | 519 kts | 173° |
| 2026-05-04 03:02 | 47.36949 | -123.41979 | 36550 ft | 518 kts | 174° |
| 2026-05-04 03:02 | 47.32152 | -123.41757 | 36890 ft | 517 kts | 174° |
| 2026-05-04 03:03 | 47.28532 | -123.41588 | 36887 ft | 521 kts | 174° |
| 2026-05-04 03:03 | 47.21213 | -123.41247 | 36882 ft | 530 kts | 174° |
| 2026-05-04 03:04 | 47.13824 | -123.40906 | 36866 ft | 537 kts | 174° |
| 2026-05-04 03:04 | 47.06298 | -123.40653 | 36873 ft | 542 kts | 174° |
| 2026-05-04 03:05 | 46.98742 | -123.40411 | 36864 ft | 545 kts | 174° |
| 2026-05-04 03:05 | 46.91163 | -123.40165 | 36862 ft | 546 kts | 174° |
| 2026-05-04 03:06 | 46.83592 | -123.39928 | 36849 ft | 545 kts | 174° |
| 2026-05-04 03:06 | 46.76011 | -123.39693 | 36846 ft | 545 kts | 174° |
| 2026-05-04 03:07 | 46.68908 | -123.39471 | 36849 ft | 544 kts | 174° |
| 2026-05-04 03:07 | 46.61560 | -123.39243 | 36855 ft | 544 kts | 174° |
| 2026-05-04 03:08 | 46.54055 | -123.39009 | 36867 ft | 543 kts | 174° |
| 2026-05-04 03:08 | 46.46480 | -123.38774 | 36873 ft | 543 kts | 174° |
| 2026-05-04 03:09 | 46.38920 | -123.38540 | 36861 ft | 543 kts | 174° |
| 2026-05-04 03:09 | 46.31343 | -123.38306 | 36858 ft | 543 kts | 174° |
| 2026-05-04 03:09 | 46.27563 | -123.38190 | 36518 ft | 542 kts | 174° |
| 2026-05-04 03:10 | 46.23792 | -123.38075 | 36826 ft | 538 kts | 174° |
| 2026-05-04 03:10 | 46.16404 | -123.37846 | 36849 ft | 542 kts | 174° |
| 2026-05-04 03:11 | 46.08826 | -123.37614 | 36851 ft | 543 kts | 174° |
| 2026-05-04 03:11 | 46.01237 | -123.37382 | 36854 ft | 543 kts | 174° |
| 2026-05-04 03:12 | 45.93685 | -123.37151 | 36859 ft | 543 kts | 174° |
| 2026-05-04 03:12 | 45.86252 | -123.36926 | 36853 ft | 542 kts | 174° |
| 2026-05-04 03:13 | 45.78811 | -123.36701 | 36871 ft | 538 kts | 174° |
| 2026-05-04 03:13 | 45.75123 | -123.36594 | 36866 ft | 524 kts | 174° |
| 2026-05-04 03:13 | 45.71523 | -123.36488 | 36863 ft | 511 kts | 174° |
| 2026-05-04 03:14 | 45.64788 | -123.36280 | 36864 ft | 525 kts | 174° |
| 2026-05-04 03:14 | 45.57443 | -123.36056 | 36863 ft | 527 kts | 175° |
| 2026-05-04 03:15 | 45.50199 | -123.35840 | 36847 ft | 524 kts | 175° |
| 2026-05-04 03:15 | 45.43008 | -123.35624 | 36848 ft | 525 kts | 175° |
| 2026-05-04 03:16 | 45.35766 | -123.35409 | 36853 ft | 522 kts | 175° |
| 2026-05-04 03:16 | 45.28507 | -123.35192 | 36841 ft | 522 kts | 175° |
| 2026-05-04 03:17 | 45.21243 | -123.34976 | 36840 ft | 520 kts | 175° |
| 2026-05-04 03:17 | 45.14034 | -123.34763 | 36834 ft | 519 kts | 175° |
| 2026-05-04 03:18 | 45.06817 | -123.34549 | 36828 ft | 519 kts | 175° |
| 2026-05-04 03:18 | 44.99618 | -123.34338 | 36831 ft | 518 kts | 175° |
| 2026-05-04 03:19 | 44.92412 | -123.34126 | 36830 ft | 518 kts | 175° |
| 2026-05-04 03:19 | 44.85545 | -123.33924 | 36810 ft | 516 kts | 175° |
| 2026-05-04 03:20 | 44.78356 | -123.33714 | 36840 ft | 518 kts | 175° |
| 2026-05-04 03:20 | 44.71131 | -123.33503 | 36825 ft | 514 kts | 175° |
| 2026-05-04 03:21 | 44.63946 | -123.33293 | 36828 ft | 517 kts | 175° |
| 2026-05-04 03:21 | 44.56800 | -123.33086 | 36851 ft | 515 kts | 175° |
| 2026-05-04 03:22 | 44.49611 | -123.32877 | 36848 ft | 515 kts | 175° |
| 2026-05-04 03:22 | 44.42437 | -123.32597 | 36862 ft | 515 kts | 175° |
| 2026-05-04 03:23 | 44.35324 | -123.32306 | 36862 ft | 513 kts | 175° |
| 2026-05-04 03:23 | 44.28189 | -123.32017 | 36846 ft | 513 kts | 175° |
| 2026-05-04 03:24 | 44.21055 | -123.31730 | 36846 ft | 513 kts | 175° |
| 2026-05-04 03:24 | 44.13957 | -123.31446 | 36849 ft | 512 kts | 175° |
| 2026-05-04 03:25 | 44.06859 | -123.31163 | 36848 ft | 511 kts | 175° |
| 2026-05-04 03:25 | 43.99751 | -123.30881 | 36856 ft | 510 kts | 175° |
| 2026-05-04 03:26 | 43.92680 | -123.30601 | 36852 ft | 510 kts | 175° |
| 2026-05-04 03:26 | 43.85811 | -123.30329 | 36844 ft | 512 kts | 175° |
| 2026-05-04 03:27 | 43.78822 | -123.30054 | 36849 ft | 511 kts | 175° |
| 2026-05-04 03:27 | 43.71723 | -123.29775 | 36853 ft | 510 kts | 175° |
| 2026-05-04 03:28 | 43.64588 | -123.29495 | 36851 ft | 511 kts | 175° |
| 2026-05-04 03:28 | 43.57524 | -123.29219 | 36857 ft | 509 kts | 175° |
| 2026-05-04 03:29 | 43.50435 | -123.28942 | 36857 ft | 510 kts | 176° |
| 2026-05-04 03:29 | 43.43301 | -123.28664 | 36862 ft | 508 kts | 176° |
| 2026-05-04 03:30 | 43.36166 | -123.28387 | 36872 ft | 507 kts | 176° |
| 2026-05-04 03:30 | 43.29116 | -123.28114 | 36880 ft | 509 kts | 176° |
| 2026-05-04 03:31 | 43.22069 | -123.27842 | 36887 ft | 508 kts | 176° |
| 2026-05-04 03:31 | 43.14955 | -123.27567 | 36891 ft | 507 kts | 176° |
| 2026-05-04 03:32 | 43.09113 | -123.27343 | 36882 ft | 505 kts | 176° |
| 2026-05-04 03:32 | 43.00874 | -123.27026 | 36877 ft | 506 kts | 176° |
| 2026-05-04 03:33 | 42.93835 | -123.26757 | 36885 ft | 504 kts | 176° |
| 2026-05-04 03:33 | 42.86905 | -123.26492 | 36890 ft | 506 kts | 176° |
| 2026-05-04 03:34 | 42.79869 | -123.26223 | 36906 ft | 506 kts | 176° |
| 2026-05-04 03:34 | 42.72845 | -123.25956 | 36911 ft | 505 kts | 176° |
| 2026-05-04 03:35 | 42.65809 | -123.25689 | 36920 ft | 504 kts | 176° |
| 2026-05-04 03:35 | 42.58802 | -123.25424 | 36925 ft | 504 kts | 176° |
| 2026-05-04 03:36 | 42.51774 | -123.25158 | 36936 ft | 505 kts | 176° |
| 2026-05-04 03:36 | 42.44727 | -123.24894 | 36932 ft | 504 kts | 176° |
| 2026-05-04 03:37 | 42.37715 | -123.24635 | 36927 ft | 504 kts | 176° |
| 2026-05-04 03:37 | 42.30711 | -123.24377 | 36924 ft | 505 kts | 176° |
| 2026-05-04 03:38 | 42.23658 | -123.24117 | 36930 ft | 504 kts | 176° |
| 2026-05-04 03:38 | 42.16626 | -123.23859 | 36943 ft | 504 kts | 176° |
| 2026-05-04 03:39 | 42.09616 | -123.23602 | 36959 ft | 505 kts | 176° |
| 2026-05-04 03:39 | 42.02584 | -123.23345 | 36981 ft | 504 kts | 176° |
| 2026-05-04 03:40 | 41.95581 | -123.23090 | 36994 ft | 504 kts | 176° |
| 2026-05-04 03:40 | 41.88562 | -123.22834 | 37008 ft | 504 kts | 177° |
| 2026-05-04 03:41 | 41.81538 | -123.22578 | 36986 ft | 504 kts | 176° |
| 2026-05-04 03:41 | 41.74489 | -123.22323 | 36994 ft | 505 kts | 176° |
| 2026-05-04 03:42 | 41.67421 | -123.22067 | 36997 ft | 506 kts | 176° |
| 2026-05-04 03:42 | 41.60332 | -123.21812 | 36991 ft | 504 kts | 177° |
| 2026-05-04 03:43 | 41.53322 | -123.21569 | 36984 ft | 506 kts | 177° |
| 2026-05-04 03:43 | 41.46267 | -123.21326 | 37005 ft | 505 kts | 176° |
| 2026-05-04 03:44 | 41.39246 | -123.21084 | 36996 ft | 506 kts | 176° |
| 2026-05-04 03:44 | 41.32208 | -123.20844 | 36971 ft | 505 kts | 176° |
| 2026-05-04 03:45 | 41.25147 | -123.20665 | 36974 ft | 506 kts | 177° |
| 2026-05-04 03:45 | 41.18096 | -123.20490 | 36978 ft | 507 kts | 177° |
| 2026-05-04 03:46 | 41.11078 | -123.20315 | 36974 ft | 506 kts | 177° |
| 2026-05-04 03:46 | 41.04041 | -123.20139 | 36961 ft | 506 kts | 177° |
| 2026-05-04 03:47 | 40.96989 | -123.19961 | 36995 ft | 507 kts | 177° |
| 2026-05-04 03:47 | 40.89968 | -123.19786 | 36991 ft | 505 kts | 177° |
| 2026-05-04 03:48 | 40.83031 | -123.19612 | 36997 ft | 505 kts | 176° |
| 2026-05-04 03:48 | 40.75991 | -123.19435 | 36987 ft | 506 kts | 177° |
| 2026-05-04 03:49 | 40.69205 | -123.19267 | 36979 ft | 504 kts | 177° |
| 2026-05-04 03:49 | 40.62228 | -123.19093 | 36991 ft | 503 kts | 176° |
| 2026-05-04 03:50 | 40.55203 | -123.18918 | 36990 ft | 502 kts | 176° |
| 2026-05-04 03:50 | 40.48225 | -123.18745 | 36988 ft | 502 kts | 176° |
| 2026-05-04 03:51 | 40.41218 | -123.18571 | 36986 ft | 502 kts | 176° |
| 2026-05-04 03:51 | 40.34235 | -123.18398 | 36994 ft | 502 kts | 176° |
| 2026-05-04 03:52 | 40.27228 | -123.18225 | 36991 ft | 500 kts | 176° |
| 2026-05-04 03:52 | 40.20272 | -123.18054 | 36994 ft | 499 kts | 176° |
| 2026-05-04 03:53 | 40.13328 | -123.17883 | 36984 ft | 497 kts | 176° |
| 2026-05-04 03:53 | 40.06390 | -123.17713 | 36979 ft | 497 kts | 176° |
| 2026-05-04 03:54 | 39.99500 | -123.17545 | 36983 ft | 498 kts | 176° |
| 2026-05-04 03:54 | 39.92553 | -123.17333 | 36978 ft | 496 kts | 175° |
| 2026-05-04 03:55 | 39.85689 | -123.17001 | 36961 ft | 497 kts | 175° |
| 2026-05-04 03:55 | 39.78869 | -123.16677 | 36967 ft | 495 kts | 175° |
| 2026-05-04 03:56 | 39.72578 | -123.16382 | 36942 ft | 495 kts | 175° |
| 2026-05-04 03:56 | 39.65674 | -123.16061 | 36955 ft | 495 kts | 176° |
| 2026-05-04 03:57 | 39.59235 | -123.15763 | 36964 ft | 494 kts | 175° |
| 2026-05-04 03:57 | 39.52125 | -123.15435 | 36952 ft | 495 kts | 176° |
| 2026-05-04 03:58 | 39.41853 | -123.14964 | 36969 ft | 494 kts | 176° |
| 2026-05-04 03:58 | 39.34987 | -123.14650 | 36978 ft | 492 kts | 176° |
| 2026-05-04 03:59 | 39.28154 | -123.14338 | 36960 ft | 493 kts | 176° |
| 2026-05-04 03:59 | 39.21303 | -123.14026 | 36963 ft | 494 kts | 176° |
| 2026-05-04 04:00 | 39.17896 | -123.13872 | 36748 ft | 486 kts | 176° |
| 2026-05-04 04:00 | 39.14475 | -123.13702 | 35988 ft | 490 kts | 173° |
| 2026-05-04 04:00 | 39.11108 | -123.13087 | 35127 ft | 491 kts | 163° |
| 2026-05-04 04:00 | 39.07810 | -123.11789 | 34303 ft | 489 kts | 154° |
| 2026-05-04 04:01 | 39.04740 | -123.09875 | 33336 ft | 487 kts | 145° |
| 2026-05-04 04:01 | 39.01862 | -123.07596 | 32372 ft | 487 kts | 143° |
| 2026-05-04 04:01 | 39.00179 | -123.06223 | 31840 ft | 502 kts | 143° |
| 2026-05-04 04:01 | 38.97273 | -123.03858 | 31245 ft | 487 kts | 143° |
| 2026-05-04 04:02 | 38.94452 | -123.01569 | 30437 ft | 473 kts | 142° |
| 2026-05-04 04:02 | 38.91703 | -122.99342 | 29737 ft | 456 kts | 142° |
| 2026-05-04 04:02 | 38.89162 | -122.97379 | 29212 ft | 441 kts | 147° |
| 2026-05-04 04:02 | 38.86363 | -122.95833 | 28824 ft | 435 kts | 155° |
| 2026-05-04 04:03 | 38.83474 | -122.94795 | 28318 ft | 435 kts | 160° |
| 2026-05-04 04:03 | 38.80790 | -122.93973 | 27878 ft | 430 kts | 160° |
| 2026-05-04 04:03 | 38.77909 | -122.93104 | 27428 ft | 424 kts | 161° |
| 2026-05-04 04:03 | 38.75197 | -122.92291 | 27009 ft | 418 kts | 161° |
| 2026-05-04 04:04 | 38.72407 | -122.91458 | 26579 ft | 412 kts | 161° |
| 2026-05-04 04:04 | 38.69628 | -122.90631 | 26151 ft | 406 kts | 161° |
| 2026-05-04 04:04 | 38.66904 | -122.89822 | 25730 ft | 401 kts | 160° |
| 2026-05-04 04:04 | 38.64195 | -122.89019 | 25315 ft | 398 kts | 161° |
| 2026-05-04 04:05 | 38.61511 | -122.88224 | 24913 ft | 398 kts | 161° |
| 2026-05-04 04:05 | 38.58796 | -122.87421 | 24497 ft | 397 kts | 161° |
| 2026-05-04 04:05 | 38.56103 | -122.86627 | 24087 ft | 393 kts | 161° |
| 2026-05-04 04:05 | 38.53435 | -122.85841 | 23693 ft | 389 kts | 161° |
| 2026-05-04 04:06 | 38.50814 | -122.85068 | 23299 ft | 386 kts | 161° |
| 2026-05-04 04:06 | 38.48212 | -122.84302 | 22907 ft | 385 kts | 161° |
| 2026-05-04 04:06 | 38.45609 | -122.83536 | 22516 ft | 382 kts | 161° |
| 2026-05-04 04:06 | 38.43031 | -122.82778 | 22121 ft | 379 kts | 162° |
| 2026-05-04 04:07 | 38.40472 | -122.82027 | 21726 ft | 376 kts | 162° |
| 2026-05-04 04:07 | 38.37930 | -122.81280 | 21336 ft | 373 kts | 162° |
| 2026-05-04 04:07 | 38.35402 | -122.80539 | 20954 ft | 372 kts | 162° |
| 2026-05-04 04:07 | 38.32899 | -122.79805 | 20563 ft | 370 kts | 162° |
| 2026-05-04 04:08 | 38.30394 | -122.79071 | 20174 ft | 369 kts | 163° |
| 2026-05-04 04:08 | 38.27887 | -122.78338 | 19786 ft | 366 kts | 163° |
| 2026-05-04 04:08 | 38.25415 | -122.77615 | 19407 ft | 364 kts | 163° |
| 2026-05-04 04:08 | 38.22945 | -122.76893 | 19038 ft | 362 kts | 163° |
| 2026-05-04 04:09 | 38.20501 | -122.76180 | 18670 ft | 360 kts | 164° |
| 2026-05-04 04:09 | 38.18049 | -122.75467 | 18307 ft | 358 kts | 164° |
| 2026-05-04 04:09 | 38.15643 | -122.74767 | 17939 ft | 356 kts | 164° |
| 2026-05-04 04:09 | 38.14027 | -122.74298 | 17695 ft | 355 kts | 164° |
| 2026-05-04 04:10 | 38.10839 | -122.73372 | 17229 ft | 353 kts | 164° |
| 2026-05-04 04:10 | 38.08446 | -122.72678 | 16866 ft | 350 kts | 165° |
| 2026-05-04 04:10 | 38.06090 | -122.71994 | 16521 ft | 349 kts | 165° |
| 2026-05-04 04:10 | 38.03722 | -122.71307 | 16184 ft | 348 kts | 165° |
| 2026-05-04 04:11 | 38.01361 | -122.70624 | 15816 ft | 346 kts | 165° |
| 2026-05-04 04:11 | 37.99027 | -122.69948 | 15465 ft | 344 kts | 165° |
| 2026-05-04 04:11 | 37.96703 | -122.69276 | 15120 ft | 342 kts | 165° |
| 2026-05-04 04:11 | 37.94398 | -122.68610 | 14779 ft | 340 kts | 165° |
| 2026-05-04 04:12 | 37.92070 | -122.67936 | 14426 ft | 339 kts | 164° |
| 2026-05-04 04:12 | 37.89973 | -122.66975 | 14086 ft | 334 kts | 149° |
| 2026-05-04 04:12 | 37.87999 | -122.65216 | 13738 ft | 331 kts | 140° |
| 2026-05-04 04:12 | 37.86286 | -122.63444 | 13430 ft | 331 kts | 139° |
| 2026-05-04 04:13 | 37.84526 | -122.61582 | 13091 ft | 328 kts | 139° |
| 2026-05-04 04:13 | 37.82787 | -122.59735 | 12758 ft | 326 kts | 139° |
| 2026-05-04 04:13 | 37.81064 | -122.57909 | 12423 ft | 323 kts | 139° |
| 2026-05-04 04:13 | 37.79351 | -122.56094 | 12105 ft | 317 kts | 139° |
| 2026-05-04 04:14 | 37.77665 | -122.54309 | 11792 ft | 311 kts | 139° |
| 2026-05-04 04:14 | 37.76024 | -122.52572 | 11485 ft | 306 kts | 139° |
| 2026-05-04 04:14 | 37.74419 | -122.50876 | 11179 ft | 301 kts | 139° |
| 2026-05-04 04:14 | 37.72833 | -122.49199 | 11000 ft | 292 kts | 139° |
| 2026-05-04 04:15 | 37.71304 | -122.47572 | 10984 ft | 285 kts | 138° |
| 2026-05-04 04:15 | 37.69787 | -122.45954 | 10982 ft | 283 kts | 138° |
| 2026-05-04 04:15 | 37.68279 | -122.44349 | 10981 ft | 282 kts | 139° |
| 2026-05-04 04:15 | 37.66785 | -122.42761 | 10984 ft | 283 kts | 139° |
| 2026-05-04 04:16 | 37.65269 | -122.41151 | 10985 ft | 282 kts | 139° |
| 2026-05-04 04:16 | 37.63770 | -122.39559 | 10984 ft | 282 kts | 139° |
| 2026-05-04 04:16 | 37.62461 | -122.38171 | 10984 ft | 282 kts | 139° |
| 2026-05-04 04:16 | 37.60789 | -122.36475 | 10860 ft | 276 kts | 145° |
| 2026-05-04 04:17 | 37.59106 | -122.35276 | 10266 ft | 285 kts | 152° |
| 2026-05-04 04:17 | 37.57337 | -122.34161 | 9999 ft | 279 kts | 152° |
| 2026-05-04 04:17 | 37.55632 | -122.33088 | 9954 ft | 266 kts | 152° |
| 2026-05-04 04:17 | 37.54400 | -122.32307 | 9946 ft | 256 kts | 152° |
| 2026-05-04 04:18 | 37.52561 | -122.31140 | 9939 ft | 239 kts | 152° |
| 2026-05-04 04:18 | 37.51311 | -122.30345 | 9935 ft | 230 kts | 152° |
| 2026-05-04 04:18 | 37.49874 | -122.29430 | 9937 ft | 228 kts | 152° |
| 2026-05-04 04:18 | 37.48473 | -122.28540 | 9934 ft | 226 kts | 152° |
| 2026-05-04 04:19 | 37.47154 | -122.27701 | 9756 ft | 240 kts | 152° |
| 2026-05-04 04:19 | 37.45630 | -122.26733 | 9403 ft | 243 kts | 152° |
| 2026-05-04 04:19 | 37.44185 | -122.25816 | 9067 ft | 245 kts | 152° |
| 2026-05-04 04:19 | 37.42699 | -122.24875 | 8730 ft | 246 kts | 152° |
| 2026-05-04 04:20 | 37.41147 | -122.23891 | 8420 ft | 245 kts | 152° |
| 2026-05-04 04:20 | 37.39643 | -122.22938 | 8124 ft | 244 kts | 152° |
| 2026-05-04 04:20 | 37.38112 | -122.21967 | 7823 ft | 244 kts | 151° |
| 2026-05-04 04:20 | 37.36820 | -122.20658 | 7500 ft | 240 kts | 124° |
| 2026-05-04 04:21 | 37.36066 | -122.18811 | 7202 ft | 238 kts | 113° |
| 2026-05-04 04:21 | 37.35420 | -122.16877 | 6896 ft | 238 kts | 112° |
| 2026-05-04 04:21 | 37.34860 | -122.14938 | 6581 ft | 238 kts | 100° |
| 2026-05-04 04:21 | 37.35007 | -122.12894 | 6256 ft | 240 kts | 70° |
| 2026-05-04 04:22 | 37.36006 | -122.11198 | 5924 ft | 244 kts | 39° |
| 2026-05-04 04:22 | 37.37478 | -122.10121 | 5626 ft | 246 kts | 29° |
| 2026-05-04 04:22 | 37.39011 | -122.09159 | 5329 ft | 246 kts | 28° |
| 2026-05-04 04:22 | 37.40540 | -122.08192 | 5031 ft | 247 kts | 28° |
| 2026-05-04 04:23 | 37.42073 | -122.07210 | 4730 ft | 247 kts | 27° |
| 2026-05-04 04:23 | 37.43746 | -122.06705 | 4402 ft | 248 kts | 357° |
| 2026-05-04 04:23 | 37.45427 | -122.07028 | 4108 ft | 247 kts | 348° |
| 2026-05-04 04:23 | 37.47105 | -122.07458 | 3812 ft | 248 kts | 348° |
| 2026-05-04 04:24 | 37.48806 | -122.07888 | 3569 ft | 246 kts | 348° |
| 2026-05-04 04:24 | 37.50462 | -122.08323 | 3383 ft | 240 kts | 341° |
| 2026-05-04 04:24 | 37.51836 | -122.09385 | 3194 ft | 229 kts | 309° |
| 2026-05-04 04:24 | 37.52509 | -122.11118 | 3001 ft | 217 kts | 276° |
| 2026-05-04 04:25 | 37.52489 | -122.12946 | 2992 ft | 206 kts | 266° |
| 2026-05-04 04:25 | 37.52605 | -122.14735 | 2986 ft | 203 kts | 283° |
| 2026-05-04 04:25 | 37.53118 | -122.16375 | 2985 ft | 198 kts | 294° |
| 2026-05-04 04:25 | 37.53758 | -122.17899 | 2989 ft | 195 kts | 296° |
| 2026-05-04 04:26 | 37.54404 | -122.19370 | 2996 ft | 187 kts | 297° |
| 2026-05-04 04:26 | 37.54997 | -122.20725 | 2985 ft | 174 kts | 296° |
| 2026-05-04 04:26 | 37.55589 | -122.22082 | 2666 ft | 174 kts | 297° |
| 2026-05-04 04:26 | 37.56146 | -122.23407 | 2312 ft | 171 kts | 294° |
| 2026-05-04 04:27 | 37.56677 | -122.24692 | 2070 ft | 161 kts | 296° |
| 2026-05-04 04:27 | 37.57197 | -122.25902 | 1852 ft | 152 kts | 295° |
| 2026-05-04 04:27 | 37.57673 | -122.27025 | 1650 ft | 141 kts | 295° |
| 2026-05-04 04:27 | 37.58129 | -122.28101 | 1454 ft | 138 kts | 295° |
| 2026-05-04 04:28 | 37.58579 | -122.29166 | 1259 ft | 136 kts | 295° |
| 2026-05-04 04:28 | 37.59020 | -122.30208 | 1067 ft | 135 kts | 295° |
| 2026-05-04 04:28 | 37.59460 | -122.31251 | 875 ft | 135 kts | 295° |
| 2026-05-04 04:28 | 37.59901 | -122.32297 | 656 ft | 135 kts | 296° |
| 2026-05-04 04:29 | 37.60359 | -122.33346 | 408 ft | 135 kts | 295° |
| 2026-05-04 04:29 | 37.60784 | -122.34384 | 283 ft | 135 kts | 296° |
| 2026-05-04 04:29 | 37.61235 | -122.35430 | 121 ft | 135 kts | 295° |
| 2026-05-04 04:29 | 37.61657 | -122.36443 | 20 ft | 117 kts | 298° |
| 2026-05-04 04:30 | 37.61967 | -122.37179 | 25 ft | 72 kts | 297° |
| 2026-05-04 04:30 | 37.62138 | -122.37590 | 30 ft | 31 kts | 297° |
| 2026-05-04 04:30 | 37.62197 | -122.37814 | 33 ft | 25 kts | 279° |
| 2026-05-04 04:30 | 37.62218 | -122.38011 | 35 ft | 16 kts | 277° |
| 2026-05-04 04:31 | 37.62225 | -122.38099 | 36 ft | 8 kts | 276° |
| 2026-05-04 04:31 | 37.62225 | -122.38193 | 37 ft | 13 kts | 261° |
| 2026-05-04 04:31 | 37.62174 | -122.38291 | 37 ft | 13 kts | 213° |
| 2026-05-04 04:31 | 37.62110 | -122.38316 | 38 ft | 4 kts | 166° |
| 2026-05-04 04:32 | 37.62070 | -122.38269 | 38 ft | 12 kts | 123° |
| 2026-05-04 04:32 | 37.62022 | -122.38156 | 37 ft | 14 kts | 118° |
| 2026-05-04 04:32 | 37.61973 | -122.38041 | 37 ft | 15 kts | 119° |
| 2026-05-04 04:32 | 37.61886 | -122.37991 | 37 ft | 11 kts | 169° |
| 2026-05-04 04:33 | 37.61824 | -122.37981 | 36 ft | 6 kts | 194° |
| 2026-05-04 04:33 | 37.61801 | -122.38005 | 37 ft | 3 kts | 240° |
| 2026-05-04 04:33 | 37.61794 | -122.38029 | 38 ft | 2 kts | 251° |
| 2026-05-04 04:33 | 37.61791 | -122.38042 | 38 ft | 0 kts | 256° |
| 2026-05-04 04:34 | 37.61790 | -122.38045 | 38 ft | 0 kts | 256° |